Hinton, Missouri
Current Conditions -  °F | °C
As of 11:54 AM on Thursday 30 Oct 2014 (Local Time) from KCOU Reporting Station
Light Rain Light Rain  
Wind Chill: 42°   Ceiling: 7000
Heat Index: 48°   Visibility: 10mi
Dew Point: 40°   Wind: 14mph
Humidity: 74%   Direction: 160°SSE
Pressure: 30.06"   Gusts: NA
Location:  39.0235°N, 92.2896°W
Report Text: KCOU 301654Z 16012KT 10SM -RA OVC070 09/04 A3006 RMK AO2 RAB1556 SLP180 P0000 T00890044
Loading
Personal Weather Stations






























Interactive Weather Map
Tropical Storm Tracking
New forecast layout! Learn more

10-Day Weather Forecast

Advertisements
Track Severe Weather on mobile